San Diego, CA (92102)

4:53 PM PDT on October 24, 2014 (GMT -0700)
Golden Hill | Change Station
CLOSE
Current Station
Personal Weather Station
Location: San Diego, CA
Elevation: 221 ft
Nearby Weather Stations
Active Advisory: Beach Hazard Statement

Elev 221 ft 32.72 °N, 117.14 °W | Updated 39 seconds ago

Clear
Clear
81.2 °F
Feels Like 80 °F
N
1.7
Wind Variable Wind from West
Gusts 3.3 mph

Today
High -- | Low -- °F
--% Chance of Precip.
Yesterday
High -- | Low -- °F
Precip. -- in
6:59 AM 6:05 PM
New Moon, 1% visible
Pressure 29.94 in
Visibility 10.0 miles
Clouds Clear
Heat Index 80 °F
Dew Point 46 °F
Humidity 28%
Rainfall -999.00 in
Snow Depth Not available.
UV 1 out of 12
Pollen 3.80 out of 12
Ozone Moderate
PM2.5 Moderate
Flu Activity Sporadic
METAR KSAN 242351Z 28004KT 10SM CLR 26/16 A2993 RMK AO2 SLP136 T02560156 10289 20256 56004

More Conditions Fewer Conditions

Pressure 29.94 in
Visibility 10.0 miles
Clouds Clear
Heat Index 80 °F
Dew Point 46 °F
Humidity 28%
Rainfall -999.00 in
Snow Depth Not available.
UV 1 out of 12
Pollen 3.80 out of 12
Ozone Moderate
PM2.5 Moderate
Flu Activity Sporadic
METAR KSAN 242351Z 28004KT 10SM CLR 26/16 A2993 RMK AO2 SLP136 T02560156 10289 20256 56004

More Conditions Fewer Conditions

10-Day Weather Forecast

Almanac

Astronomy

Oct. 24, 2014 Rise Set
Actual Time 6:59 AM PDT 6:05 PM PDT
Civil Twilight 6:34 AM PDT 6:30 PM PDT
Nautical Twilight 6:05 AM PDT 6:59 PM PDT
Astronomical Twilight 5:36 AM PDT 7:27 PM PDT
Moon 7:41 AM PDT 6:51 PM PDT
Length of Visible Light 11h 55m
Length of Day
11h 05m
Tomorrow will be 1m 50s shorter.
New Moon, 1% of the Moon is Illuminated
Today
New Moon
Oct 30
First Quarter
Nov 6
Full
Nov 14
Last Quarter
Nov 22
New

Today's Extremes

State Highs State Lows

Community

WunderPhotos

Upload Photos

1,764,713 photos uploaded!

Nearby

Air Quality

  Air Quality AQ Index Pollutant
Yesterday Moderate
OZONE
Yesterday Moderate
PM2.5
Current Moderate
OZONE
Current Moderate
PM2.5
Friday Moderate
PM2.5
Friday Good
OZONE
Saturday Moderate
PM2.5
Saturday Good
OZONE
Sunday Good
PM2.5
Sunday Good
OZONE
Monday Good
PM2.5
Monday Good
OZONE

Snow Depth

Station Depth Elevation
Leavitt Meadows 0 in 7200 ft
Summit Meadow 0 in 9122 ft
Ward Creek #3 12 in 6750 ft
Adin Mountain 0 in 6200 ft

Earthquake Activity

City Distance Mag. Time & Date
Maneadero, Mexico 105 miles 2.5 7:44 AM PDT
2014-10-24
San Felipe, Mexico 127 miles 3.0 11:00 PM PDT
2014-10-23
Brea, California 95 miles 2.9 3:35 PM PDT
2014-10-23
Brea, California 95 miles 2.8 3:34 PM PDT
2014-10-23
Minimum magnitude displayed is 2.5.

Coastal Water Temperatures

Place Temperature
La Jolla, CA 71.1 °F
San Diego, CA 75.0 °F

Nearby Weather Stations